Time;durP1;ratioP1;P1;durP2;ratioP2;P2;SDS_P1;SDS_P2;PMS_P1;PMS_P2;Temp;Humidity;BMP_temperature;BMP_pressure;BME280_temperature;BME280_humidity;BME280_pressure;Samples;Min_cycle;Max_cycle;Signal;HPM_P1;HPM_P2
2022/06/19 00:01:42;;;;;;;16.50;3.03;;;;;;;25.97;36.83;93755.53;5046063;28;20205;-62
2022/06/19 00:04:27;;;;;;;9.43;2.87;;;;;;;25.61;37.72;93737.91;5052538;28;20295;-62
2022/06/19 00:07:11;;;;;;;9.63;3.07;;;;;;;25.75;37.50;93735.16;5052174;28;20218;-62
2022/06/19 00:09:55;;;;;;;10.63;2.50;;;;;;;25.92;36.91;93733.94;5052521;28;20253;-62
2022/06/19 00:12:40;;;;;;;11.17;2.30;;;;;;;26.02;37.04;93742.66;5052166;28;20194;-62
2022/06/19 00:15:24;;;;;;;13.87;2.77;;;;;;;26.15;36.70;93738.50;5045503;28;20694;-62
2022/06/19 00:18:08;;;;;;;11.33;2.83;;;;;;;26.22;36.84;93736.41;5051610;28;20198;-62
2022/06/19 00:20:52;;;;;;;10.23;2.87;;;;;;;26.14;36.76;93728.41;5052341;28;20236;-62
2022/06/19 00:23:36;;;;;;;9.00;2.70;;;;;;;26.35;36.66;93720.03;5047107;28;20286;-62
2022/06/19 00:26:20;;;;;;;12.23;2.67;;;;;;;26.12;37.33;93722.66;5052901;28;20236;-62
2022/06/19 00:29:05;;;;;;;12.50;3.17;;;;;;;25.60;38.15;93707.75;5047353;28;20253;-62
2022/06/19 00:31:49;;;;;;;10.33;2.57;;;;;;;25.98;37.82;93698.84;5048396;28;20221;-62
2022/06/19 00:34:37;;;;;;;15.77;3.20;;;;;;;26.10;37.70;93693.94;5050401;28;20209;-62
2022/06/19 00:37:21;;;;;;;9.27;2.70;;;;;;;26.07;36.88;93698.19;5046835;28;20205;-62
2022/06/19 00:40:09;;;;;;;13.50;3.83;;;;;;;26.05;37.42;93689.56;5043880;28;20205;-62
2022/06/19 00:42:54;;;;;;;15.10;2.97;;;;;;;26.77;36.70;93694.47;5046709;28;20713;-62
2022/06/19 00:45:49;;;;;;;9.40;2.83;;;;;;;26.39;37.60;93691.31;5050101;28;20577;-62
2022/06/19 00:48:37;;;;;;;12.37;3.03;;;;;;;25.90;38.53;93690.84;5046764;28;20605;-62
2022/06/19 00:51:21;;;;;;;9.27;2.60;;;;;;;25.86;38.66;93679.31;5042980;28;20305;-62
2022/06/19 00:54:06;;;;;;;11.53;2.60;;;;;;;26.25;37.97;93671.09;5047157;28;20408;-62
2022/06/19 00:56:51;;;;;;;11.90;3.47;;;;;;;26.04;37.74;93665.16;5050253;28;20194;-62
2022/06/19 00:59:38;;;;;;;16.57;3.97;;;;;;;25.61;38.68;93658.28;5042258;28;20701;-62
2022/06/19 01:02:23;;;;;;;23.57;3.93;;;;;;;25.57;39.13;93657.50;5048573;28;20200;-62
2022/06/19 01:05:11;;;;;;;14.63;3.17;;;;;;;25.81;38.97;93643.38;5051111;28;20224;-62
2022/06/19 01:07:59;;;;;;;11.13;2.80;;;;;;;25.59;38.71;93640.31;5051962;28;20213;-62
2022/06/19 01:10:48;;;;;;;18.60;3.67;;;;;;;25.42;38.90;93638.66;5048603;28;20225;-62
2022/06/19 01:13:32;;;;;;;17.07;3.30;;;;;;;25.73;37.96;93632.56;5050670;28;20261;-62
2022/06/19 01:16:16;;;;;;;16.37;3.50;;;;;;;25.84;37.22;93629.78;5051202;28;20196;-62
2022/06/19 01:19:00;;;;;;;19.93;3.80;;;;;;;26.09;36.04;93623.56;5048980;28;20252;-62
2022/06/19 01:22:20;;;;;;;16.40;4.57;;;;;;;26.44;34.64;93624.56;5051129;28;20190;-62
2022/06/19 01:25:08;;;;;;;20.80;3.77;;;;;;;26.14;35.49;93627.91;5051110;28;20201;-62
2022/06/19 01:31:00;;;;;;;17.40;3.43;;;;;;;26.59;33.78;93613.88;5040531;28;21014;-62
2022/06/19 01:33:51;;;;;;;23.43;3.90;;;;;;;26.57;34.12;93608.84;5051426;28;20248;-62
2022/06/19 01:36:36;;;;;;;20.30;3.67;;;;;;;26.19;33.72;93599.91;5046095;28;20520;-62
2022/06/19 01:39:22;;;;;;;22.47;3.83;;;;;;;26.33;33.79;93590.72;5052158;28;20240;-62
2022/06/19 01:42:07;;;;;;;16.73;3.47;;;;;;;26.33;34.16;93596.47;5048017;28;20224;-62
2022/06/19 01:44:53;;;;;;;17.30;3.67;;;;;;;26.48;34.03;93595.84;5043795;28;20233;-62
2022/06/19 01:47:40;;;;;;;19.00;4.00;;;;;;;26.61;33.92;93585.13;5054064;28;20248;-62
2022/06/19 01:50:27;;;;;;;17.60;4.07;;;;;;;26.64;33.58;93586.59;5045982;28;20209;-62
2022/06/19 01:53:19;;;;;;;14.03;4.10;;;;;;;26.56;33.50;93575.06;5048858;28;20197;-62
2022/06/19 01:56:06;;;;;;;16.40;3.47;;;;;;;26.38;34.49;93577.81;5049544;28;20621;-62
2022/06/19 01:58:55;;;;;;;22.77;4.57;;;;;;;26.32;34.88;93572.03;5059222;28;20224;-62
2022/06/19 02:01:40;;;;;;;14.50;3.30;;;;;;;26.28;35.11;93560.53;5039811;28;20198;-61
2022/06/19 02:04:24;;;;;;;17.37;3.90;;;;;;;26.06;35.15;93561.78;5049199;28;20713;-62
2022/06/19 02:07:17;;;;;;;14.63;3.73;;;;;;;26.12;35.22;93556.06;5051236;28;20618;-62
2022/06/19 02:10:01;;;;;;;16.77;3.47;;;;;;;26.04;36.21;93561.78;5048228;28;20213;-62
2022/06/19 02:12:45;;;;;;;16.73;3.80;;;;;;;26.07;36.41;93557.47;5048163;28;20290;-62
2022/06/19 02:15:31;;;;;;;17.40;3.43;;;;;;;26.25;36.10;93550.44;5048232;28;20213;-62
2022/06/19 02:18:33;;;;;;;19.60;4.03;;;;;;;26.07;37.13;93554.59;5053552;28;20595;-62
2022/06/19 02:21:21;;;;;;;16.40;3.43;;;;;;;25.92;37.51;93544.47;5050008;28;20695;-62
2022/06/19 02:24:07;;;;;;;15.03;3.93;;;;;;;26.02;36.84;93553.13;5045179;28;20252;-62
2022/06/19 02:26:52;;;;;;;20.07;4.03;;;;;;;25.77;37.41;93552.22;5041202;28;20327;-62
2022/06/19 02:29:39;;;;;;;19.93;3.63;;;;;;;25.54;38.25;93541.25;5049731;28;20205;-62
2022/06/19 02:32:30;;;;;;;9.97;3.27;;;;;;;25.75;38.11;93537.84;5041914;28;20761;-62
2022/06/19 02:35:21;;;;;;;27.73;4.33;;;;;;;25.57;38.23;93539.84;5048761;28;20312;-62
2022/06/19 02:38:07;;;;;;;20.83;4.03;;;;;;;25.40;38.40;93533.22;5056940;28;20586;-61
2022/06/19 02:41:07;;;;;;;13.23;3.07;;;;;;;25.48;37.75;93529.72;5047149;28;20198;-62
2022/06/19 02:43:51;;;;;;;19.83;3.70;;;;;;;25.75;37.41;93534.25;5049296;28;20809;-62
2022/06/19 02:46:35;;;;;;;23.93;4.13;;;;;;;25.54;37.79;93529.75;5049060;28;20255;-62
2022/06/19 02:49:19;;;;;;;11.03;3.97;;;;;;;25.50;37.87;93535.44;5050601;28;20196;-62
2022/06/19 02:52:05;;;;;;;16.40;3.60;;;;;;;25.31;38.48;93529.53;5045769;28;20273;-62
2022/06/19 02:54:49;;;;;;;21.90;3.70;;;;;;;25.19;38.60;93532.28;5050527;28;20236;-61
2022/06/19 02:57:33;;;;;;;13.17;3.67;;;;;;;25.04;38.73;93524.97;5050167;28;20209;-62
2022/06/19 03:00:24;;;;;;;16.07;3.93;;;;;;;24.87;39.24;93534.78;5058042;28;20204;-61
2022/06/19 03:03:16;;;;;;;19.67;4.00;;;;;;;24.61;39.83;93528.75;5043434;28;20721;-62
2022/06/19 03:06:02;;;;;;;21.17;3.87;;;;;;;24.58;39.57;93528.72;5044761;28;20214;-62
2022/06/19 03:08:46;;;;;;;17.63;3.87;;;;;;;24.90;39.18;93536.28;5047149;28;20248;-62
2022/06/19 03:11:30;;;;;;;13.90;3.43;;;;;;;24.96;39.64;93528.47;5048767;28;20230;-62
2022/06/19 03:14:15;;;;;;;13.63;4.00;;;;;;;25.07;39.24;93535.03;5036805;28;20234;-62
2022/06/19 03:16:59;;;;;;;16.37;3.93;;;;;;;24.90;39.15;93536.28;5047997;28;20619;-62
2022/06/19 03:19:44;;;;;;;20.17;3.63;;;;;;;24.86;38.99;93542.66;5049129;28;20244;-62
2022/06/19 03:22:28;;;;;;;19.00;3.80;;;;;;;24.82;38.77;93547.59;5049930;28;20204;-62
2022/06/19 03:25:12;;;;;;;18.97;3.80;;;;;;;24.84;38.32;93544.78;5054837;28;20247;-62
2022/06/19 03:27:57;;;;;;;21.67;3.80;;;;;;;24.68;39.32;93544.59;5047940;28;20689;-62
2022/06/19 03:30:41;;;;;;;15.80;3.50;;;;;;;24.72;39.83;93544.63;5058290;28;20221;-62
2022/06/19 03:33:25;;;;;;;16.43;3.93;;;;;;;24.72;40.01;93542.50;5054179;28;20681;-62
2022/06/19 03:36:10;;;;;;;21.87;4.10;;;;;;;24.73;40.37;93540.34;5052562;28;20205;-62
2022/06/19 03:38:54;;;;;;;13.77;3.33;;;;;;;24.75;39.98;93543.25;5051225;28;20198;-61
2022/06/19 03:41:38;;;;;;;16.63;3.97;;;;;;;24.86;40.07;93554.13;5051642;28;20236;-62
2022/06/19 03:44:23;;;;;;;21.93;4.00;;;;;;;24.73;41.08;93546.06;5052518;28;20228;-62
2022/06/19 03:47:07;;;;;;;26.33;4.07;;;;;;;24.89;40.45;93546.28;5051763;28;20209;-62
2022/06/19 03:49:52;;;;;;;20.63;4.47;;;;;;;24.72;40.68;93545.34;5054458;28;20227;-62
2022/06/19 03:52:36;;;;;;;20.43;4.23;;;;;;;24.89;40.20;93546.28;5049098;28;20312;-62
2022/06/19 03:55:20;;;;;;;21.20;4.93;;;;;;;24.35;42.77;93552.75;5050401;28;20194;-62
2022/06/19 03:58:04;;;;;;;20.73;4.33;;;;;;;24.85;40.60;93540.50;5053940;28;20237;-61
2022/06/19 04:00:48;;;;;;;19.13;3.80;;;;;;;25.10;40.72;93547.97;5051934;28;20197;-61
2022/06/19 04:03:33;;;;;;;15.40;3.90;;;;;;;24.97;41.11;93552.13;5049679;28;20264;-62
2022/06/19 04:06:19;;;;;;;15.37;3.70;;;;;;;25.19;40.38;93552.34;5053722;28;20274;-61
2022/06/19 04:09:05;;;;;;;21.37;3.67;;;;;;;25.43;39.84;93548.31;5049066;28;20205;-62
2022/06/19 04:11:50;;;;;;;24.53;4.40;;;;;;;25.46;39.79;93552.63;5047877;28;20680;-62
2022/06/19 04:14:33;;;;;;;10.27;3.30;;;;;;;25.57;39.81;93548.44;5049916;28;20210;-62
2022/06/19 04:17:18;;;;;;;20.97;4.60;;;;;;;25.52;40.50;93558.44;5051100;28;20263;-62
2022/06/19 04:20:03;;;;;;;24.20;4.40;;;;;;;25.52;40.28;93562.00;5053721;28;20217;-62
2022/06/19 04:22:47;;;;;;;15.57;3.33;;;;;;;25.78;39.84;93562.28;5047375;28;20198;-62
2022/06/19 04:25:31;;;;;;;12.20;4.73;;;;;;;25.88;40.72;93549.44;5052502;28;20205;-62
2022/06/19 04:28:17;;;;;;;13.87;3.70;;;;;;;26.04;40.01;93553.16;5053076;28;20812;-62
2022/06/19 04:31:01;;;;;;;20.67;3.83;;;;;;;26.04;40.39;93556.03;5048929;28;20656;-62
2022/06/19 04:33:46;;;;;;;13.50;4.03;;;;;;;26.14;39.77;93555.38;5047921;28;21002;-61
2022/06/19 04:36:31;;;;;;;15.90;4.23;;;;;;;25.85;40.06;93554.44;5047946;28;20689;-62
2022/06/19 04:39:16;;;;;;;16.33;3.80;;;;;;;26.21;39.77;93561.88;5052243;28;20213;-62
2022/06/19 04:42:01;;;;;;;14.50;3.77;;;;;;;26.76;38.94;93569.41;5044947;28;20193;-62
2022/06/19 04:44:45;;;;;;;13.47;3.60;;;;;;;26.84;38.73;93565.88;5051346;28;20233;-62
2022/06/19 04:47:29;;;;;;;20.53;4.50;;;;;;;27.04;38.70;93568.09;5052591;28;20697;-62
2022/06/19 04:50:13;;;;;;;10.90;3.37;;;;;;;27.26;38.75;93571.06;5047194;28;20286;-62
2022/06/19 04:52:57;;;;;;;15.37;3.87;;;;;;;27.07;39.66;93569.56;5047843;28;20194;-62
2022/06/19 04:55:41;;;;;;;17.13;4.10;;;;;;;27.04;40.74;93568.84;5044324;28;20213;-62
2022/06/19 04:58:25;;;;;;;22.70;4.90;;;;;;;27.49;40.52;93563.94;5050406;28;20256;-62
2022/06/19 05:01:32;;;;;;;13.70;4.10;;;;;;;27.53;40.13;93569.00;5049964;28;20205;-62
2022/06/19 05:04:15;;;;;;;16.23;4.37;;;;;;;27.75;40.52;93569.75;5051409;28;20225;-62
2022/06/19 05:06:59;;;;;;;13.80;4.27;;;;;;;28.01;39.95;93571.94;5049690;28;20749;-62
2022/06/19 05:09:43;;;;;;;16.10;3.83;;;;;;;28.06;40.10;93573.38;5050076;28;20687;-62
2022/06/19 05:12:27;;;;;;;18.10;4.37;;;;;;;28.39;40.15;93568.31;5052591;28;20337;-62
2022/06/19 05:15:11;;;;;;;16.87;4.27;;;;;;;28.76;39.61;93574.06;5051463;28;20233;-62
2022/06/19 05:17:56;;;;;;;16.83;3.73;;;;;;;28.53;39.73;93568.28;5052617;28;20205;-62
2022/06/19 05:20:40;;;;;;;22.13;4.23;;;;;;;29.04;39.23;93576.84;5048017;28;20725;-62
2022/06/19 05:23:24;;;;;;;21.07;4.30;;;;;;;29.02;39.51;93576.09;5046846;28;20236;-62
2022/06/19 05:26:14;;;;;;;18.17;4.23;;;;;;;29.40;38.60;93581.75;5050914;28;20259;-62
2022/06/19 05:28:58;;;;;;;17.50;4.30;;;;;;;29.66;38.58;93581.59;5047173;28;20200;-62
2022/06/19 05:31:43;;;;;;;23.43;4.43;;;;;;;29.69;38.62;93585.91;5046996;28;20226;-63
2022/06/19 05:34:27;;;;;;;20.50;4.40;;;;;;;29.90;38.96;93574.94;5051888;28;20617;-62
2022/06/19 05:37:11;;;;;;;16.73;4.07;;;;;;;30.07;39.56;93575.56;5045455;28;20191;-62
2022/06/19 05:39:55;;;;;;;19.97;4.10;;;;;;;30.53;39.37;93583.88;5048261;28;20733;-62
2022/06/19 05:42:39;;;;;;;16.97;4.47;;;;;;;30.72;38.32;93575.72;5047061;28;20734;-63
2022/06/19 05:45:23;;;;;;;17.60;3.47;;;;;;;30.95;37.72;93579.81;5046643;28;20201;-63
2022/06/19 05:48:07;;;;;;;18.67;3.70;;;;;;;30.87;37.66;93582.78;5052640;28;20272;-63
2022/06/19 05:51:24;;;;;;;18.63;3.57;;;;;;;30.45;38.68;93588.97;5051595;28;20267;-63
2022/06/19 05:54:09;;;;;;;22.55;4.78;;;;;;;31.39;33.31;93583.66;5039067;28;21080;-63
2022/06/19 05:56:53;;;;;;;21.23;4.00;;;;;;;31.61;32.66;93580.47;5048359;28;20204;-63
2022/06/19 05:59:37;;;;;;;19.58;4.07;;;;;;;31.96;31.69;93582.91;5051423;28;20266;-62
2022/06/19 06:02:23;;;;;;;24.23;4.97;;;;;;;31.97;29.27;93590.13;5044627;28;20194;-63
2022/06/19 06:05:07;;;;;;;21.92;4.55;;;;;;;32.34;29.70;93590.31;5048075;28;20210;-63
2022/06/19 06:07:51;;;;;;;19.13;4.35;;;;;;;32.60;28.88;93586.22;5039304;28;20241;-63
2022/06/19 06:10:35;;;;;;;18.55;4.25;;;;;;;32.45;28.31;93595.19;5050666;28;20201;-63
2022/06/19 06:13:19;;;;;;;21.88;4.05;;;;;;;32.19;27.69;93595.59;5043733;28;20193;-63
2022/06/19 06:16:03;;;;;;;25.58;3.83;;;;;;;32.19;26.26;93592.69;5049238;28;20685;-64
2022/06/19 06:18:49;;;;;;;26.15;5.03;;;;;;;32.73;26.46;93593.97;5048530;28;20582;-63
2022/06/19 06:21:34;;;;;;;25.15;4.18;;;;;;;32.59;25.61;93608.00;5044518;28;20273;-64
2022/06/19 06:24:17;;;;;;;25.13;4.07;;;;;;;33.10;26.73;93604.91;5046321;28;20574;-63
2022/06/19 06:27:05;;;;;;;16.02;4.45;;;;;;;33.67;24.98;93605.22;5047199;28;20664;-63
2022/06/19 06:29:49;;;;;;;19.92;4.63;;;;;;;33.49;24.50;93604.91;5042286;28;20209;-63
2022/06/19 06:32:33;;;;;;;22.85;4.10;;;;;;;33.80;25.12;93605.00;5047550;28;20597;-63
2022/06/19 06:35:17;;;;;;;21.20;4.55;;;;;;;33.89;23.95;93612.06;5051376;28;20522;-63
2022/06/19 06:38:01;;;;;;;24.35;4.15;;;;;;;33.35;24.99;93623.34;5050614;28;20193;-64
2022/06/19 06:40:45;;;;;;;17.25;4.22;;;;;;;33.31;25.06;93624.13;5039433;28;20253;-64
2022/06/19 06:43:29;;;;;;;26.38;5.45;;;;;;;34.28;23.97;93626.47;5040544;28;20205;-64
2022/06/19 06:46:20;;;;;;;21.45;4.20;;;;;;;33.38;24.66;93621.13;5042033;28;20206;-63
2022/06/19 06:49:04;;;;;;;20.70;4.68;;;;;;;33.93;24.23;93624.31;5044097;28;20201;-63
2022/06/19 06:51:49;;;;;;;26.17;4.38;;;;;;;34.11;24.21;93623.91;5045421;28;20240;-64
2022/06/19 06:54:35;;;;;;;18.45;3.97;;;;;;;34.27;24.16;93625.03;5043414;28;20189;-64
2022/06/19 06:57:19;;;;;;;16.98;3.35;;;;;;;34.53;23.43;93626.59;5045535;28;20206;-64
2022/06/19 07:00:06;;;;;;;24.92;4.35;;;;;;;35.35;22.66;93614.31;5049755;28;20197;-64
2022/06/19 07:02:50;;;;;;;22.45;4.43;;;;;;;34.86;22.58;93633.78;5044248;28;20233;-64
2022/06/19 07:05:34;;;;;;;17.73;4.63;;;;;;;35.37;22.32;93620.78;5050698;28;20251;-64
2022/06/19 07:08:18;;;;;;;14.35;3.97;;;;;;;35.35;22.11;93620.88;5038395;28;20201;-64
2022/06/19 07:11:02;;;;;;;24.30;4.65;;;;;;;36.00;22.37;93622.63;5046474;28;20217;-64
2022/06/19 07:13:47;;;;;;;21.80;4.35;;;;;;;35.49;22.03;93629.19;5050810;28;20288;-64
2022/06/19 07:16:31;;;;;;;24.88;4.65;;;;;;;36.42;21.58;93623.53;5049522;28;20197;-64
2022/06/19 07:19:15;;;;;;;22.60;4.40;;;;;;;36.69;21.14;93628.53;5046259;28;20263;-64
2022/06/19 07:21:59;;;;;;;18.90;3.97;;;;;;;37.40;20.28;93632.00;5046810;28;20220;-64
2022/06/19 07:24:44;;;;;;;23.63;4.43;;;;;;;36.84;20.39;93626.59;5050125;28;20642;-61
2022/06/19 07:27:28;;;;;;;18.90;5.20;;;;;;;36.95;20.79;93618.91;5047084;28;20228;-62
2022/06/19 07:30:19;;;;;;;19.83;4.63;;;;;;;37.54;20.61;93631.47;5048887;28;20205;-62
2022/06/19 07:33:03;;;;;;;21.52;4.57;;;;;;;37.10;21.13;93628.63;5044496;28;20679;-62
2022/06/19 07:35:47;;;;;;;17.88;4.30;;;;;;;37.39;20.51;93625.44;5048352;28;20197;-62
2022/06/19 07:38:31;;;;;;;17.58;4.00;;;;;;;37.75;20.32;93620.50;5048138;28;20248;-62
2022/06/19 07:41:15;;;;;;;25.00;4.35;;;;;;;37.70;20.21;93619.22;5052242;28;20733;-62
2022/06/19 07:43:59;;;;;;;16.58;4.38;;;;;;;38.76;19.68;93621.72;5044571;28;20195;-62
2022/06/19 07:52:50;;;;;;;16.58;4.65;;;;;;;38.92;19.95;93614.47;5049492;28;20283;-62
2022/06/19 07:55:35;;;;;;;17.67;4.35;;;;;;;38.84;19.79;93622.06;5044999;28;20237;-62
2022/06/19 07:58:19;;;;;;;23.00;4.85;;;;;;;40.24;18.52;93627.72;5047561;28;20267;-62
2022/06/19 08:01:03;;;;;;;17.15;4.38;;;;;;;40.43;19.32;93628.25;5049104;28;20193;-62
2022/06/19 08:03:47;;;;;;;14.50;4.10;;;;;;;40.57;18.75;93634.97;5046885;28;20229;-62
2022/06/19 08:06:31;;;;;;;20.27;4.45;;;;;;;40.52;19.04;93633.75;5045276;28;20209;-63
2022/06/19 08:09:15;;;;;;;25.80;4.78;;;;;;;39.21;20.04;93632.28;5048663;28;20328;-62
2022/06/19 08:12:00;;;;;;;21.08;4.38;;;;;;;39.79;20.35;93631.25;5054359;28;20221;-62
2022/06/19 08:14:44;;;;;;;21.48;5.03;;;;;;;41.25;18.11;93636.06;5042275;28;20206;-63
2022/06/19 08:17:28;;;;;;;18.30;4.60;;;;;;;41.15;18.23;93640.97;5048131;28;20225;-63
2022/06/19 08:20:13;;;;;;;17.30;4.70;;;;;;;38.42;20.97;93632.56;5047950;28;20259;-62
2022/06/19 08:22:58;;;;;;;16.48;4.03;;;;;;;39.96;20.15;93643.69;5048294;28;20197;-62
2022/06/19 08:25:42;;;;;;;13.52;4.07;;;;;;;40.75;19.33;93634.13;5053085;28;20251;-63
2022/06/19 08:28:30;;;;;;;22.80;4.47;;;;;;;40.22;19.86;93639.56;5048403;28;20217;-63
2022/06/19 08:31:14;;;;;;;24.20;4.78;;;;;;;41.54;18.78;93630.88;5046233;28;20268;-62
2022/06/19 08:33:58;;;;;;;22.92;4.40;;;;;;;41.74;18.88;93635.00;5047177;28;20197;-62
2022/06/19 08:36:42;;;;;;;24.23;4.40;;;;;;;41.14;19.58;93618.94;5050525;28;20256;-62
2022/06/19 08:39:28;;;;;;;16.10;4.80;;;;;;;40.93;19.56;93626.63;5048705;28;20205;-62
2022/06/19 08:42:34;;;;;;;18.05;4.78;;;;;;;40.25;21.06;93632.06;5049017;28;20210;-62
2022/06/19 08:45:28;;;;;;;19.77;4.90;;;;;;;39.36;20.87;93624.34;5050497;28;20201;-62
2022/06/19 08:48:21;;;;;;;19.08;4.75;;;;;;;40.88;20.65;93622.47;5052306;28;20741;-62
2022/06/19 08:51:30;;;;;;;18.40;5.25;;;;;;;40.30;20.37;93627.44;5051699;28;20583;-62
2022/06/19 08:54:31;;;;;;;20.42;4.90;;;;;;;41.93;19.06;93617.81;5045232;28;20735;-62
2022/06/19 08:57:32;;;;;;;11.90;4.53;;;;;;;41.75;18.57;93618.75;5050977;28;20204;-63
2022/06/19 09:00:32;;;;;;;23.83;5.25;;;;;;;41.09;19.41;93625.84;5046030;28;20209;-63
2022/06/19 09:07:02;;;;;;;18.98;4.60;;;;;;;41.12;20.25;93624.94;5047369;28;20641;-62
2022/06/19 09:10:05;;;;;;;18.45;4.13;;;;;;;42.73;18.46;93620.75;5051025;28;20204;-62
2022/06/19 09:13:04;;;;;;;14.82;4.72;;;;;;;42.75;18.42;93632.44;5045156;28;20283;-63
2022/06/19 09:16:30;;;;;;;23.40;5.07;;;;;;;42.69;19.59;93620.97;5043162;28;20194;-63
2022/06/19 09:19:39;;;;;;;20.75;4.80;;;;;;;42.80;18.84;93624.06;5050467;28;20208;-63
2022/06/19 09:22:42;;;;;;;19.55;4.55;;;;;;;43.48;17.94;93625.25;5042454;28;20607;-63
2022/06/19 09:25:40;;;;;;;19.77;4.90;;;;;;;43.69;17.39;93621.09;5049011;28;20217;-63
2022/06/19 09:28:36;;;;;;;17.73;4.45;;;;;;;44.61;16.89;93619.78;5039880;28;20241;-63
2022/06/19 09:31:42;;;;;;;17.15;4.45;;;;;;;44.41;16.21;93629.94;5044110;28;20328;-65
2022/06/19 09:34:49;;;;;;;15.60;4.60;;;;;;;42.63;18.71;93626.50;5048789;28;20285;-64
2022/06/19 09:37:41;;;;;;;23.33;5.10;;;;;;;44.92;16.40;93636.97;5046605;28;20233;-64
2022/06/19 09:40:28;;;;;;;21.40;4.63;;;;;;;44.45;16.52;93624.47;5044089;28;20281;-65
2022/06/19 09:43:23;;;;;;;17.98;5.07;;;;;;;44.71;17.64;93631.69;5049269;28;20201;-64
2022/06/19 09:46:35;;;;;;;17.63;4.72;;;;;;;45.81;15.65;93625.06;5048153;28;20616;-64
2022/06/19 09:49:24;;;;;;;15.70;4.57;;;;;;;45.04;16.57;93630.25;5050194;28;20197;-65
2022/06/19 09:52:34;;;;;;;18.40;4.43;;;;;;;44.29;17.37;93608.50;5041259;28;20586;-65
2022/06/19 09:55:26;;;;;;;14.20;4.32;;;;;;;45.57;14.71;93614.91;5044963;28;20193;-67
2022/06/19 09:58:19;;;;;;;19.65;4.45;;;;;;;42.96;18.31;93604.75;5041234;28;20288;-66
2022/06/19 10:01:04;;;;;;;20.15;4.47;;;;;;;46.41;15.39;93601.63;5040315;28;20198;-66
2022/06/19 10:03:59;;;;;;;23.92;4.70;;;;;;;47.37;14.20;93610.88;5046235;28;20297;-66
2022/06/19 10:06:51;;;;;;;17.33;4.80;;;;;;;48.33;13.21;93603.50;5038443;28;20686;-65
2022/06/19 10:09:41;;;;;;;19.25;4.70;;;;;;;46.90;15.35;93592.16;5041090;28;20248;-65
2022/06/19 10:12:32;;;;;;;22.20;4.72;;;;;;;46.68;15.28;93604.09;5047440;28;20719;-66
2022/06/19 10:15:31;;;;;;;20.58;5.68;;;;;;;47.87;13.68;93602.59;5046316;28;20247;-67
2022/06/19 10:18:28;;;;;;;16.60;4.68;;;;;;;46.61;14.46;93594.22;5047405;28;20200;-66
2022/06/19 10:25:04;;;;;;;11.75;4.00;;;;;;;44.32;16.20;93589.09;5048493;28;20224;-66
2022/06/19 10:28:15;;;;;;;18.55;4.97;;;;;;;48.17;12.85;93591.31;5045491;28;20684;-67
2022/06/19 10:31:09;;;;;;;17.33;4.75;;;;;;;50.84;11.61;93597.84;5059995;28;20248;-67
2022/06/19 10:34:05;;;;;;;16.50;4.25;;;;;;;48.87;12.65;93593.13;5051209;28;20751;-67
2022/06/19 10:37:31;;;;;;;12.90;4.82;;;;;;;50.65;11.84;93597.34;5045086;28;20260;-67
2022/06/19 10:40:24;;;;;;;19.85;5.18;;;;;;;47.67;13.52;93598.25;5050257;28;20243;-67
2022/06/19 10:43:33;;;;;;;22.20;4.63;;;;;;;47.71;13.50;93592.00;5042226;28;20648;-67
2022/06/19 10:46:17;;;;;;;13.15;4.45;;;;;;;49.17;13.11;93595.19;5048983;28;20200;-66
2022/06/19 10:49:14;;;;;;;19.70;4.70;;;;;;;49.07;12.41;93590.06;5050935;28;20205;-67
2022/06/19 10:52:33;;;;;;;14.60;4.68;;;;;;;48.31;12.68;93585.81;5049710;28;20228;-67
2022/06/19 10:55:33;;;;;;;19.70;5.43;;;;;;;50.46;11.58;93592.97;5031984;28;20613;-68
2022/06/19 10:58:21;;;;;;;23.05;4.68;;;;;;;50.52;11.51;93583.53;5075535;28;20204;-68
2022/06/19 11:01:08;;;;;;;17.60;5.20;;;;;;;49.69;12.63;93566.88;5049932;28;20192;-68
2022/06/19 11:04:10;;;;;;;15.60;4.70;;;;;;;47.03;14.61;93566.69;5046334;28;20274;-68
2022/06/19 11:07:06;;;;;;;13.20;4.40;;;;;;;48.75;12.80;93570.34;5047103;28;20201;-68
2022/06/19 11:09:54;;;;;;;21.13;5.00;;;;;;;50.36;11.42;93576.00;5047505;28;20682;-68
2022/06/19 11:12:44;;;;;;;20.70;5.05;;;;;;;50.48;12.09;93571.97;5051467;28;20326;-69
2022/06/19 11:15:31;;;;;;;18.70;4.85;;;;;;;51.20;10.89;93572.22;5045750;28;20266;-69
2022/06/19 11:18:25;;;;;;;14.20;4.30;;;;;;;51.89;10.16;93569.50;5046761;28;20201;-69
2022/06/19 11:21:17;;;;;;;23.60;4.80;;;;;;;52.62;10.66;93571.44;5039528;28;20189;-69
2022/06/19 11:24:04;;;;;;;18.65;4.88;;;;;;;52.32;10.56;93566.13;5036648;28;20235;-69
2022/06/19 11:26:48;;;;;;;15.43;5.18;;;;;;;52.32;10.14;93560.13;5048663;28;20258;-69
2022/06/19 11:29:32;;;;;;;18.98;5.10;;;;;;;53.07;10.35;93558.06;5039433;28;20244;-69
2022/06/19 11:32:22;;;;;;;16.05;4.97;;;;;;;50.02;11.52;93555.16;5047551;28;20200;-68
2022/06/19 11:35:08;;;;;;;15.80;4.78;;;;;;;54.30;9.31;93557.44;5047687;28;20204;-69
2022/06/19 11:37:56;;;;;;;16.25;4.32;;;;;;;51.53;11.82;93552.00;5047976;28;20220;-68
2022/06/19 11:40:46;;;;;;;20.10;4.70;;;;;;;52.85;10.30;93552.69;5034797;28;20709;-69
2022/06/19 11:43:32;;;;;;;16.50;4.82;;;;;;;53.43;10.20;93557.38;5050899;28;20200;-69
2022/06/19 11:46:25;;;;;;;23.08;5.05;;;;;;;53.39;10.63;93554.81;5052268;28;20220;-69
2022/06/19 11:49:36;;;;;;;18.73;4.80;;;;;;;55.00;9.58;93554.47;5052656;28;20200;-68
2022/06/19 11:52:24;;;;;;;17.95;4.78;;;;;;;54.29;9.56;93541.03;5048999;28;20673;-68
2022/06/19 11:55:35;;;;;;;21.08;5.10;;;;;;;53.24;10.47;93542.88;5053132;28;20201;-69
2022/06/19 11:58:36;;;;;;;19.08;4.93;;;;;;;54.67;9.62;93538.56;5047676;28;20194;-68
2022/06/19 12:01:21;;;;;;;15.45;4.70;;;;;;;53.58;10.55;93526.69;5042376;28;20216;-68
2022/06/19 12:04:18;;;;;;;17.92;4.97;;;;;;;51.83;12.28;93530.50;5053883;28;20371;-68
2022/06/19 12:07:10;;;;;;;14.30;4.22;;;;;;;54.01;10.88;93526.66;5050604;28;20221;-69
2022/06/19 12:10:20;;;;;;;17.20;4.30;;;;;;;54.06;10.03;93523.97;5049164;28;20219;-69
2022/06/19 12:13:18;;;;;;;10.52;4.50;;;;;;;53.82;10.06;93520.50;5051021;28;20201;-70
2022/06/19 12:16:23;;;;;;;14.70;4.85;;;;;;;53.55;10.00;93517.22;5050503;28;20212;-69
2022/06/19 12:19:29;;;;;;;14.88;4.53;;;;;;;53.00;10.79;93507.06;5049567;28;20256;-70
2022/06/19 12:22:15;;;;;;;20.13;4.57;;;;;;;56.02;8.65;93520.69;5047489;28;20307;-70
2022/06/19 12:25:08;;;;;;;18.65;4.88;;;;;;;55.29;9.92;93515.38;5050228;28;20255;-69
2022/06/19 12:27:59;;;;;;;14.02;4.60;;;;;;;56.13;8.51;93513.53;5052844;28;20981;-68
2022/06/19 12:31:02;;;;;;;21.42;6.10;;;;;;;58.43;6.66;93512.06;5050112;28;20200;-68
2022/06/19 12:33:55;;;;;;;21.52;5.07;;;;;;;55.36;8.45;93510.09;5051421;28;21005;-68
2022/06/19 12:36:40;;;;;;;15.75;4.80;;;;;;;54.98;9.05;93496.94;5053042;28;20205;-68
2022/06/19 12:39:29;;;;;;;17.70;5.20;;;;;;;54.65;10.15;93499.75;5055190;28;20214;-70
2022/06/19 12:42:16;;;;;;;19.33;4.70;;;;;;;56.02;9.14;93507.97;5048593;28;20276;-69
2022/06/19 12:45:35;;;;;;;16.70;5.32;;;;;;;57.49;7.53;93505.22;5050635;28;20275;-69
2022/06/19 12:48:57;;;;;;;19.55;4.80;;;;;;;55.68;7.94;93500.47;5052378;28;20312;-69
2022/06/19 12:52:13;;;;;;;17.40;4.88;;;;;;;55.24;8.46;93500.78;5051380;28;20212;-69
2022/06/19 12:55:16;;;;;;;12.80;4.70;;;;;;;56.78;8.24;93500.78;5047844;28;20200;-70
2022/06/19 12:58:31;;;;;;;15.98;5.18;;;;;;;56.70;8.13;93498.72;5044216;28;20246;-71
2022/06/19 13:01:22;;;;;;;22.48;5.50;;;;;;;57.60;7.28;93495.63;5047562;28;20220;-70
2022/06/19 13:04:18;;;;;;;19.25;5.65;;;;;;;57.95;7.93;93492.19;5046969;28;20295;-70
2022/06/19 13:07:24;;;;;;;19.75;5.22;;;;;;;54.83;8.91;93482.78;5052686;28;20193;-70
2022/06/19 13:10:31;;;;;;;13.02;4.63;;;;;;;56.88;7.26;93495.88;5049451;28;20208;-70
2022/06/19 13:13:21;;;;;;;16.45;5.35;;;;;;;56.53;8.45;93493.84;5047747;28;21067;-71
2022/06/19 13:16:14;;;;;;;17.02;4.97;;;;;;;57.52;7.82;93482.25;5050428;28;20256;-70
2022/06/19 13:19:32;;;;;;;12.77;4.90;;;;;;;54.37;8.80;93479.47;5052860;28;20613;-70
2022/06/19 13:22:37;;;;;;;20.92;5.07;;;;;;;54.33;8.28;93467.88;5049728;28;20256;-70
2022/06/19 13:25:36;;;;;;;19.77;5.30;;;;;;;59.19;6.09;93482.94;5042806;28;20626;-71
2022/06/19 13:28:36;;;;;;;15.02;4.55;;;;;;;55.50;8.85;93466.44;5044775;28;20209;-70